Ischia Jet — IOBI — position and weather

sailwx.info

Track history (hours):
 
Tides and Currents Weather Stations Pressure Air Temp Water Temp Dewpoint Dewpoint Depression Visibility Wind Speed Wind Dir Waves Ship Positions

Ischia Jet

Last reported at 2015-Mar-29 17:06 UTC. Time now 2015-Mar-30 04:30 UTC.
Position N 40°38' E 014°23'.

Length 42 m; draft 1.2 m.

Type: Passenger vessel. MMSI: 247048700.

Date/timePositionNaut miles runAvg speedWind from/ knotsBaromVisibWave heightAir tempDewpointWater temp
2015-Mar-29 17:06N 40°38' E 014°23'1323.5
2015-Mar-29 16:33N 40°50' E 014°17'1 0.1
2015-Mar-29 10:18N 40°49' E 014°17'1620.1
2015-Mar-29 09:30N 40°33' E 014°14'1613.0
2015-Mar-29 08:16N 40°49' E 014°17'1622.1
2015-Mar-29 07:33N 40°33' E 014°14'10 4.7
2015-Mar-29 05:32N 40°42' E 014°21'5 0.4
2015-Mar-28 16:33N 40°46' E 014°18'4 1.3
2015-Mar-28 13:11N 40°50' E 014°15'1 0.6
2015-Mar-28 11:21N 40°50' E 014°17'1720.5
2015-Mar-28 10:33N 40°33' E 014°14'1613.1
2015-Mar-28 09:18N 40°50' E 014°17'1620.7
2015-Mar-28 08:31N 40°33' E 014°14'10 5.2
2015-Mar-28 06:33N 40°42' E 014°22'4 0.3
2015-Mar-27 18:09N 40°38' E 014°23'5 2.9
2015-Mar-27 16:33N 40°41' E 014°18'8 7.8
2015-Mar-27 15:34N 40°33' E 014°14'9 1.0
2015-Mar-27 06:32N 40°41' E 014°21'4 0.3
2015-Mar-26 18:08N 40°38' E 014°23'4 0.4
2015-Mar-26 06:32N 40°42' E 014°20'4 0.2
2015-Mar-25 13:33N 40°38' E 014°23'0 0.0
2015-Mar-25 12:14N 40°38' E 014°23'0 0.0
2015-Mar-25 11:32N 40°38' E 014°23'0 0.0
2015-Mar-25 10:33N 40°38' E 014°23'0 0.0
2015-Mar-25 09:33N 40°38' E 014°23'0 0.0
2015-Mar-25 08:33N 40°38' E 014°23'0 0.0
2015-Mar-25 07:30N 40°38' E 014°23'0 0.0
2015-Mar-24 18:07N 40°38' E 014°23'4 0.3
2015-Mar-24 06:32N 40°41' E 014°21'4 0.3
2015-Mar-23 18:11N 40°38' E 014°23'7 4.2
2015-Mar-23 16:33N 40°43' E 014°17'10 9.8
2015-Mar-23 15:34N 40°33' E 014°14'17 3.9
2015-Mar-23 11:20N 40°50' E 014°16'1721.6
2015-Mar-23 10:33N 40°33' E 014°14'1713.2
2015-Mar-23 09:18N 40°50' E 014°16'1722.4
2015-Mar-23 08:33N 40°33' E 014°14'10 5.1
2015-Mar-23 06:34N 40°42' E 014°21'5 0.4
2015-Mar-22 18:07N 40°38' E 014°23'7 4.4
2015-Mar-22 16:34N 40°42' E 014°16'3 2.9
2015-Mar-22 15:33N 40°40' E 014°19'9 2.1
2015-Mar-22 11:18N 40°49' E 014°17'1621.3
2015-Mar-22 10:33N 40°33' E 014°14'1613.4
2015-Mar-22 09:19N 40°50' E 014°17'1621.7
2015-Mar-22 08:34N 40°33' E 014°14'9 4.3
2015-Mar-22 06:30N 40°41' E 014°21'3 0.3
2015-Mar-21 18:06N 40°38' E 014°23'7 4.6
2015-Mar-21 16:33N 40°43' E 014°16'10 9.6
2015-Mar-21 15:32N 40°33' E 014°14'17 3.9
2015-Mar-21 11:18N 40°50' E 014°17'1721.3
2015-Mar-21 10:31N 40°33' E 014°14'1714.1
2015-Mar-21 09:20N 40°50' E 014°16'1721.6
2015-Mar-21 08:33N 40°33' E 014°14'9 4.4
2015-Mar-21 06:30N 40°41' E 014°21'3 0.3
2015-Mar-20 18:09N 40°38' E 014°23'7 4.4
2015-Mar-20 16:33N 40°43' E 014°16'9 9.3
2015-Mar-20 15:33N 40°33' E 014°14'17 4.1
2015-Mar-20 11:25N 40°50' E 014°16'1719.1
2015-Mar-20 10:33N 40°33' E 014°14'1713.4
2015-Mar-20 09:19N 40°50' E 014°17'1722.1
2015-Mar-20 08:33N 40°33' E 014°14'9 4.1
2015-Mar-20 06:27N 40°40' E 014°22'2 0.2
2015-Mar-19 18:07N 40°38' E 014°23'  
Track history (hours):
 
Tides and Currents Weather Stations Pressure Air Temp Water Temp Dewpoint Dewpoint Depression Visibility Wind Speed Wind Dir Waves Ship Positions

Ischia Jet

Last reported at 2015-Mar-29 17:06 UTC. Time now 2015-Mar-30 04:30 UTC.
Position N 40°38' E 014°23'.

Length 42 m; draft 1.2 m.

Type: Passenger vessel. MMSI: 247048700.

Date/timePositionNaut miles runAvg speedWind from/ knotsBaromVisibWave heightAir tempDewpointWater temp
2015-Mar-29 17:06N 40°38' E 014°23'1323.5
2015-Mar-29 16:33N 40°50' E 014°17'1 0.1
2015-Mar-29 10:18N 40°49' E 014°17'1620.1
2015-Mar-29 09:30N 40°33' E 014°14'1613.0
2015-Mar-29 08:16N 40°49' E 014°17'1622.1
2015-Mar-29 07:33N 40°33' E 014°14'10 4.7
2015-Mar-29 05:32N 40°42' E 014°21'5 0.4
2015-Mar-28 16:33N 40°46' E 014°18'4 1.3
2015-Mar-28 13:11N 40°50' E 014°15'1 0.6
2015-Mar-28 11:21N 40°50' E 014°17'1720.5
2015-Mar-28 10:33N 40°33' E 014°14'1613.1
2015-Mar-28 09:18N 40°50' E 014°17'1620.7
2015-Mar-28 08:31N 40°33' E 014°14'10 5.2
2015-Mar-28 06:33N 40°42' E 014°22'4 0.3
2015-Mar-27 18:09N 40°38' E 014°23'5 2.9
2015-Mar-27 16:33N 40°41' E 014°18'8 7.8
2015-Mar-27 15:34N 40°33' E 014°14'9 1.0
2015-Mar-27 06:32N 40°41' E 014°21'4 0.3
2015-Mar-26 18:08N 40°38' E 014°23'4 0.4
2015-Mar-26 06:32N 40°42' E 014°20'4 0.2
2015-Mar-25 13:33N 40°38' E 014°23'0 0.0
2015-Mar-25 12:14N 40°38' E 014°23'0 0.0
2015-Mar-25 11:32N 40°38' E 014°23'0 0.0
2015-Mar-25 10:33N 40°38' E 014°23'0 0.0
2015-Mar-25 09:33N 40°38' E 014°23'0 0.0
2015-Mar-25 08:33N 40°38' E 014°23'0 0.0
2015-Mar-25 07:30N 40°38' E 014°23'0 0.0
2015-Mar-24 18:07N 40°38' E 014°23'4 0.3
2015-Mar-24 06:32N 40°41' E 014°21'4 0.3
2015-Mar-23 18:11N 40°38' E 014°23'7 4.2
2015-Mar-23 16:33N 40°43' E 014°17'10 9.8
2015-Mar-23 15:34N 40°33' E 014°14'17 3.9
2015-Mar-23 11:20N 40°50' E 014°16'1721.6
2015-Mar-23 10:33N 40°33' E 014°14'1713.2
2015-Mar-23 09:18N 40°50' E 014°16'1722.4
2015-Mar-23 08:33N 40°33' E 014°14'10 5.1
2015-Mar-23 06:34N 40°42' E 014°21'5 0.4
2015-Mar-22 18:07N 40°38' E 014°23'7 4.4
2015-Mar-22 16:34N 40°42' E 014°16'3 2.9
2015-Mar-22 15:33N 40°40' E 014°19'9 2.1
2015-Mar-22 11:18N 40°49' E 014°17'1621.3
2015-Mar-22 10:33N 40°33' E 014°14'1613.4
2015-Mar-22 09:19N 40°50' E 014°17'1621.7
2015-Mar-22 08:34N 40°33' E 014°14'9 4.3
2015-Mar-22 06:30N 40°41' E 014°21'3 0.3
2015-Mar-21 18:06N 40°38' E 014°23'7 4.6
2015-Mar-21 16:33N 40°43' E 014°16'10 9.6
2015-Mar-21 15:32N 40°33' E 014°14'17 3.9
2015-Mar-21 11:18N 40°50' E 014°17'1721.3
2015-Mar-21 10:31N 40°33' E 014°14'1714.1
2015-Mar-21 09:20N 40°50' E 014°16'1721.6
2015-Mar-21 08:33N 40°33' E 014°14'9 4.4
2015-Mar-21 06:30N 40°41' E 014°21'3 0.3
2015-Mar-20 18:09N 40°38' E 014°23'7 4.4
2015-Mar-20 16:33N 40°43' E 014°16'9 9.3
2015-Mar-20 15:33N 40°33' E 014°14'17 4.1
2015-Mar-20 11:25N 40°50' E 014°16'1719.1
2015-Mar-20 10:33N 40°33' E 014°14'1713.4
2015-Mar-20 09:19N 40°50' E 014°17'1722.1
2015-Mar-20 08:33N 40°33' E 014°14'9 4.1
2015-Mar-20 06:27N 40°40' E 014°22'2 0.2
2015-Mar-19 18:07N 40°38' E 014°23'  

Dump ship's entire track history